createdAt,value
2016-08-21T00:00:23.773Z,80.49
2016-08-21T00:01:36.755Z,82.41
2016-08-21T00:02:49.943Z,80.68
2016-08-21T00:04:02.916Z,79.91
2016-08-21T00:05:15.903Z,80.11
2016-08-21T00:06:28.881Z,79.97
2016-08-21T00:07:41.863Z,80.49
2016-08-21T00:08:54.851Z,81.89
2016-08-21T00:10:07.836Z,83.42
2016-08-21T00:11:20.820Z,84.48
2016-08-21T00:12:33.815Z,81.41
2016-08-21T00:13:46.791Z,82.85
2016-08-21T00:14:59.978Z,79.59
2016-08-21T00:16:12.958Z,81.02
2016-08-21T00:17:25.934Z,83.42
2016-08-21T00:18:38.916Z,81.89
2016-08-21T00:19:51.899Z,82.75
2016-08-21T00:21:04.887Z,81.6
2016-08-21T00:22:17.874Z,81.79
2016-08-21T00:23:30.854Z,82.37
2016-08-21T00:24:43.858Z,81.66
2016-08-21T00:25:56.850Z,81.46
2016-08-21T00:27:09.831Z,81.75
2016-08-21T00:28:22.804Z,82.42
2016-08-21T00:29:35.786Z,81.85
2016-08-21T00:30:48.969Z,82.14
2016-08-21T00:32:01.953Z,80.99
2016-08-21T00:33:15.205Z,80.89
2016-08-21T00:34:28.390Z,84.25
2016-08-21T00:35:41.363Z,82.23
2016-08-21T00:36:54.345Z,84.72
2016-08-21T00:38:07.349Z,84.44
2016-08-21T00:39:20.327Z,83.67
2016-08-21T00:40:33.308Z,82.04
2016-08-21T00:41:46.291Z,81.66
2016-08-21T00:42:59.468Z,82.62
2016-08-21T00:44:12.460Z,82.9
2016-08-21T00:45:25.447Z,82.42
2016-08-21T00:46:38.429Z,82.52
2016-08-21T00:47:51.428Z,83.29
2016-08-21T00:49:04.430Z,81.75
2016-08-21T00:50:17.425Z,80.99
2016-08-21T00:51:30.602Z,81.56
2016-08-21T00:52:43.586Z,84.72
2016-08-21T00:53:56.792Z,82.42
2016-08-21T00:55:09.775Z,82.32
2016-08-21T00:56:22.761Z,82.81
2016-08-21T00:57:35.750Z,83.72
2016-08-21T00:58:48.743Z,84.49
2016-08-21T01:00:01.724Z,82.57
2016-08-21T01:01:14.695Z,86.02
2016-08-21T01:02:27.673Z,86.12
2016-08-21T01:03:40.648Z,82.96
2016-08-21T01:04:53.622Z,86.12
2016-08-21T01:06:06.603Z,84.2
2016-08-21T01:07:19.588Z,85.25
2016-08-21T01:08:32.564Z,84.88
2016-08-21T01:09:45.750Z,86.41
2016-08-21T01:10:58.729Z,86.02
2016-08-21T01:12:11.712Z,84.88
2016-08-21T01:13:24.700Z,85.16
2016-08-21T01:14:37.687Z,84.97
2016-08-21T01:15:50.667Z,85.54
2016-08-21T01:17:03.667Z,84.3
2016-08-21T01:18:16.653Z,84.2
2016-08-21T01:19:29.638Z,85.83
2016-08-21T01:20:42.610Z,86.69
2016-08-21T01:21:55.598Z,85.74
2016-08-21T01:23:08.590Z,85.35
2016-08-21T01:24:21.585Z,84.88
2016-08-21T01:25:34.970Z,85.93
2016-08-21T01:26:47.949Z,85.69
2016-08-21T01:28:00.927Z,85.35
2016-08-21T01:29:13.906Z,85.02
2016-08-21T01:30:27.107Z,85.06
2016-08-21T01:31:40.087Z,85.21
2016-08-21T01:32:53.066Z,83.97
2016-08-21T01:34:06.105Z,84.83
2016-08-21T01:35:19.084Z,85.45
2016-08-21T01:36:32.068Z,85.16
2016-08-21T01:37:45.041Z,85.88
2016-08-21T01:38:58.021Z,85.5
2016-08-21T01:40:11.009Z,85.88
2016-08-21T01:41:23.990Z,83.87
2016-08-21T01:42:36.972Z,83.59
2016-08-21T01:43:50.157Z,84.64
2016-08-21T01:45:03.142Z,85.79
2016-08-21T01:46:16.121Z,83.97
2016-08-21T01:47:29.316Z,84.83
2016-08-21T01:48:42.494Z,85.41
2016-08-21T01:49:55.482Z,83.78
2016-08-21T01:51:08.899Z,83.01
2016-08-21T01:52:21.876Z,87.61
2016-08-21T01:53:35.065Z,88.18
2016-08-21T01:54:48.037Z,87.13
2016-08-21T01:56:01.018Z,85.98
2016-08-21T01:57:13.998Z,87.99
2016-08-21T01:58:26.979Z,87.23
2016-08-21T01:59:39.968Z,87.41
2016-08-21T02:00:52.941Z,87.32
2016-08-21T02:02:05.928Z,87.23
2016-08-21T02:03:18.913Z,88.28
2016-08-21T02:04:31.886Z,84.55
2016-08-21T02:05:44.867Z,85.12
2016-08-21T02:06:57.850Z,83.59
2016-08-21T02:08:11.043Z,86.46
2016-08-21T02:09:24.014Z,86.36
2016-08-21T02:10:36.992Z,86.17
2016-08-21T02:11:50.174Z,89.72
2016-08-21T02:13:03.343Z,86.94
2016-08-21T02:14:16.321Z,90.91
2016-08-21T02:15:29.292Z,91.49
2016-08-21T02:16:42.471Z,88.04
2016-08-21T02:17:55.456Z,87.95
2016-08-21T02:19:08.454Z,87.08
2016-08-21T02:20:21.429Z,88.71
2016-08-21T02:21:34.405Z,87.08
2016-08-21T02:22:47.397Z,87.85
2016-08-21T02:24:00.570Z,86.9
2016-08-21T02:25:13.549Z,89.58
2016-08-21T02:26:26.738Z,87.47
2016-08-21T02:27:39.928Z,85.84
2016-08-21T02:28:53.113Z,86.99
2016-08-21T02:30:06.104Z,85.27
2016-08-21T02:31:19.081Z,86.22
2016-08-21T02:32:32.273Z,87.08
2016-08-21T02:33:45.264Z,85.08
2016-08-21T02:34:58.303Z,85.08
2016-08-21T02:36:11.287Z,83.83
2016-08-21T02:37:24.257Z,89.76
2016-08-21T02:38:37.232Z,86.04
2016-08-21T02:39:50.207Z,88.62
2016-08-21T02:41:03.178Z,87.08
2016-08-21T02:42:16.168Z,84.79
2016-08-21T02:43:29.134Z,86.13
2016-08-21T02:44:42.119Z,85.27
2016-08-21T02:45:55.096Z,86.41
2016-08-21T02:47:08.078Z,86.51
2016-08-21T02:48:21.061Z,86.41
2016-08-21T02:49:34.051Z,87.56
2016-08-21T02:50:47.028Z,86.61
2016-08-21T02:52:00.003Z,84.79
2016-08-21T02:53:12.976Z,86.61
2016-08-21T02:54:25.964Z,86.8
2016-08-21T02:55:38.940Z,86.13
2016-08-21T02:56:51.916Z,86.32
2016-08-21T02:58:04.895Z,85.65
2016-08-21T02:59:17.900Z,87.18
2016-08-21T03:00:30.883Z,85.65
2016-08-21T03:01:43.857Z,87.66
2016-08-21T03:02:56.851Z,89.34
2016-08-21T03:04:09.827Z,87.62
2016-08-21T03:05:22.805Z,87.9
2016-08-21T03:06:35.785Z,87.33
2016-08-21T03:07:48.757Z,88.57
2016-08-21T03:09:01.950Z,88.48
2016-08-21T03:10:15.137Z,87.18
2016-08-21T03:11:28.123Z,85.51
2016-08-21T03:12:41.113Z,87.52
2016-08-21T03:13:54.099Z,86.76
2016-08-21T03:15:07.078Z,87.9
2016-08-21T03:16:20.256Z,88.48
2016-08-21T03:17:33.238Z,89.53
2016-08-21T03:18:46.218Z,87.14
2016-08-21T03:19:59.204Z,88
2016-08-21T03:21:12.193Z,87.43
2016-08-21T03:22:25.176Z,86.08
2016-08-21T03:23:38.182Z,88.67
2016-08-21T03:24:51.159Z,89.43
2016-08-21T03:26:04.136Z,88.76
2016-08-21T03:27:17.119Z,88.67
2016-08-21T03:28:30.095Z,90.2
2016-08-21T03:29:43.078Z,91.44
2016-08-21T03:30:56.054Z,89.72
2016-08-21T03:32:09.057Z,91.53
2016-08-21T03:33:22.256Z,88.29
2016-08-21T03:34:35.242Z,89.34
2016-08-21T03:35:48.271Z,86.94
2016-08-21T03:37:01.235Z,86.57
2016-08-21T03:38:14.421Z,88.38
2016-08-21T03:39:27.592Z,88.57
2016-08-21T03:40:40.569Z,87.52
2016-08-21T03:41:53.555Z,89.53
2016-08-21T03:43:06.540Z,87.33
2016-08-21T03:44:19.541Z,89.24
2016-08-21T03:45:32.513Z,87.9
2016-08-21T03:46:45.495Z,88.29
2016-08-21T03:47:58.477Z,90.67
2016-08-21T03:49:11.478Z,87.23
2016-08-21T03:50:24.459Z,88.86
2016-08-21T03:51:37.450Z,89.43
2016-08-21T03:52:50.835Z,87.71
2016-08-21T03:54:03.810Z,90.01
2016-08-21T03:55:16.994Z,84.75
2016-08-21T03:56:29.976Z,87.71
2016-08-21T03:57:42.958Z,85.41
2016-08-21T03:58:55.928Z,82.93
2016-08-21T04:00:08.912Z,85.03
2016-08-21T04:01:21.896Z,87.23
2016-08-21T04:02:35.094Z,88.19
2016-08-21T04:03:48.068Z,87.04
2016-08-21T04:05:01.255Z,83.22
2016-08-21T04:06:14.238Z,84.94
2016-08-21T04:07:27.238Z,84.84
2016-08-21T04:08:40.206Z,87.81
2016-08-21T04:09:53.587Z,85.99
2016-08-21T04:11:06.570Z,91.16
2016-08-21T04:12:19.540Z,90.96
2016-08-21T04:13:32.517Z,87.23
2016-08-21T04:14:45.495Z,88.38
2016-08-21T04:15:58.471Z,88.95
2016-08-21T04:17:11.654Z,87.23
2016-08-21T04:18:24.633Z,89.62
2016-08-21T04:19:37.601Z,92.3
2016-08-21T04:20:50.573Z,90.58
2016-08-21T04:22:03.554Z,88.29
2016-08-21T04:23:16.561Z,86.28
2016-08-21T04:24:29.538Z,87.04
2016-08-21T04:25:42.509Z,86.57
2016-08-21T04:26:55.491Z,86.66
2016-08-21T04:28:08.668Z,88.29
2016-08-21T04:29:21.640Z,89.05
2016-08-21T04:30:34.617Z,87.62
2016-08-21T04:31:47.595Z,88.76
2016-08-21T04:33:00.596Z,87.81
2016-08-21T04:34:13.576Z,89.43
2016-08-21T04:35:26.568Z,89.43
2016-08-21T04:36:39.616Z,86.28
2016-08-21T04:37:52.589Z,88.76
2016-08-21T04:39:05.577Z,87.14
2016-08-21T04:40:18.556Z,88.48
2016-08-21T04:41:31.535Z,88.19
2016-08-21T04:42:44.515Z,87.14
2016-08-21T04:43:57.518Z,86.85
2016-08-21T04:45:10.696Z,87.43
2016-08-21T04:46:23.670Z,85.41
2016-08-21T04:47:36.849Z,87.14
2016-08-21T04:48:49.838Z,88.19
2016-08-21T04:50:02.839Z,87.81
2016-08-21T04:51:15.822Z,88
2016-08-21T04:52:28.811Z,85.8
2016-08-21T04:53:41.993Z,85.03
2016-08-21T04:54:54.972Z,85.61
2016-08-21T04:56:07.950Z,86.94
2016-08-21T04:57:20.931Z,86.94
2016-08-21T04:58:34.111Z,87.33
2016-08-21T04:59:47.098Z,87.62
2016-08-21T05:01:00.077Z,87.33
2016-08-21T05:02:13.051Z,87.71
2016-08-21T05:03:26.035Z,86.08
2016-08-21T05:04:39.017Z,85.41
2016-08-21T05:05:52.001Z,84.79
2016-08-21T05:07:04.983Z,83.5
2016-08-21T05:08:18.178Z,85.75
2016-08-21T05:09:31.163Z,84.75
2016-08-21T05:10:44.158Z,85.65
2016-08-21T05:11:57.135Z,84.27
2016-08-21T05:13:10.115Z,84.98
2016-08-21T05:14:23.092Z,85.75
2016-08-21T05:15:36.271Z,86.22
2016-08-21T05:16:49.245Z,83.54
2016-08-21T05:18:02.225Z,83.54
2016-08-21T05:19:15.211Z,83.93
2016-08-21T05:20:28.201Z,85.75
2016-08-21T05:21:41.384Z,84.22
2016-08-21T05:22:54.372Z,85.36
2016-08-21T05:24:07.352Z,86.7
2016-08-21T05:25:20.524Z,85.55
2016-08-21T05:26:33.504Z,83.93
2016-08-21T05:27:46.479Z,86.32
2016-08-21T05:28:59.459Z,85.84
2016-08-21T05:30:12.439Z,86.04
2016-08-21T05:31:25.419Z,85.17
2016-08-21T05:32:38.403Z,84.02
2016-08-21T05:33:51.384Z,84.45
2016-08-21T05:35:04.366Z,84.83
2016-08-21T05:36:17.344Z,84.64
2016-08-21T05:37:30.397Z,83.3
2016-08-21T05:38:43.574Z,83.01
2016-08-21T05:39:56.585Z,82.92
2016-08-21T05:41:09.557Z,83.78
2016-08-21T05:42:22.546Z,83.78
2016-08-21T05:43:35.721Z,81.29
2016-08-21T05:44:48.702Z,83.82
2016-08-21T05:46:01.678Z,82.76
2016-08-21T05:47:14.666Z,82.09
2016-08-21T05:48:27.640Z,82.76
2016-08-21T05:49:40.639Z,81.71
2016-08-21T05:50:53.625Z,81.9
2016-08-21T05:52:06.609Z,83.82
2016-08-21T05:53:19.602Z,80.66
2016-08-21T05:54:32.599Z,81.9
2016-08-21T05:55:45.579Z,81.13
2016-08-21T05:56:58.569Z,80.47
2016-08-21T05:58:11.553Z,82.09
2016-08-21T05:59:24.529Z,81.13
2016-08-21T06:00:37.509Z,82.67
2016-08-21T06:01:50.697Z,82.48
2016-08-21T06:03:03.925Z,82.81
2016-08-21T06:04:16.931Z,81.46
2016-08-21T06:05:29.911Z,82.23
2016-08-21T06:06:42.892Z,82.81
2016-08-21T06:07:55.874Z,81.08
2016-08-21T06:09:08.856Z,83.38
2016-08-21T06:10:21.834Z,81.37
2016-08-21T06:11:34.812Z,80.22
2016-08-21T06:12:47.798Z,80.32
2016-08-21T06:14:00.980Z,79.45
2016-08-21T06:15:13.966Z,80.32
2016-08-21T06:16:27.151Z,80.41
2016-08-21T06:17:40.129Z,78.3
2016-08-21T06:18:53.119Z,79.88
2016-08-21T06:20:06.105Z,78.72
2016-08-21T06:21:19.088Z,78.34
2016-08-21T06:22:32.066Z,79.39
2016-08-21T06:23:45.254Z,78.92
2016-08-21T06:24:58.246Z,80.45
2016-08-21T06:26:11.224Z,79.44
2016-08-21T06:27:24.221Z,78.28
2016-08-21T06:28:37.406Z,78.86
2016-08-21T06:29:50.390Z,78.77
2016-08-21T06:31:03.588Z,76.94
2016-08-21T06:32:16.572Z,77.61
2016-08-21T06:33:29.541Z,77.71
2016-08-21T06:34:42.520Z,77.61
2016-08-21T06:35:55.501Z,78.67
2016-08-21T06:37:08.481Z,78.28
2016-08-21T06:38:21.508Z,78.28
2016-08-21T06:39:34.490Z,78.67
2016-08-21T06:40:47.474Z,78.28
2016-08-21T06:42:00.881Z,78.86
2016-08-21T06:43:13.883Z,79.24
2016-08-21T06:44:26.875Z,78.86
2016-08-21T06:45:39.858Z,76.84
2016-08-21T06:46:52.848Z,77.33
2016-08-21T06:48:06.029Z,76.4
2016-08-21T06:49:19.228Z,77.36
2016-08-21T06:50:32.409Z,76.06
2016-08-21T06:51:45.419Z,76.34
2016-08-21T06:52:58.403Z,76.44
2016-08-21T06:54:11.390Z,76.34
2016-08-21T06:55:24.380Z,76.25
2016-08-21T06:56:37.371Z,76.15
2016-08-21T06:57:50.360Z,76.06
2016-08-21T06:59:03.353Z,76.25
2016-08-21T07:00:16.341Z,76.44
2016-08-21T07:01:29.527Z,75.77
2016-08-21T07:02:42.507Z,75.29
2016-08-21T07:03:55.510Z,75.42
2016-08-21T07:05:08.501Z,74.08
2016-08-21T07:06:21.494Z,74.3
2016-08-21T07:07:34.484Z,74.3
2016-08-21T07:08:47.485Z,73.28
2016-08-21T07:10:00.457Z,72.9
2016-08-21T07:11:13.441Z,71.46
2016-08-21T07:12:26.423Z,70.62
2016-08-21T07:13:39.414Z,68.93
2016-08-21T07:14:52.407Z,68.29
2016-08-21T07:16:05.415Z,68.04
2016-08-21T07:17:18.406Z,68.13
2016-08-21T07:18:31.399Z,67.07
2016-08-21T07:19:44.408Z,68.23
2016-08-21T07:20:57.598Z,67.9
2016-08-21T07:22:10.584Z,67.55
2016-08-21T07:23:23.569Z,67.26
2016-08-21T07:24:36.565Z,66.39
2016-08-21T07:25:49.557Z,65.08
2016-08-21T07:27:02.562Z,64.82
2016-08-21T07:28:15.551Z,64.08
2016-08-21T07:29:28.741Z,63.34
2016-08-21T07:30:41.744Z,64.59
2016-08-21T07:31:54.750Z,64.47
2016-08-21T07:33:07.947Z,65.69
2016-08-21T07:34:21.141Z,66.46
2016-08-21T07:35:34.131Z,67.1
2016-08-21T07:36:47.135Z,67.36
2016-08-21T07:38:00.332Z,67.16
2016-08-21T07:39:13.368Z,67.16
2016-08-21T07:40:26.352Z,66.33
2016-08-21T07:41:39.554Z,65.98
2016-08-21T07:42:52.551Z,65.69
2016-08-21T07:44:05.543Z,65.69
2016-08-21T07:45:18.551Z,65.43
2016-08-21T07:46:31.538Z,66.17
2016-08-21T07:47:44.526Z,65.98
2016-08-21T07:48:57.718Z,66.62
2016-08-21T07:50:10.711Z,67.49
2016-08-21T07:51:23.707Z,68.32
2016-08-21T07:52:36.712Z,68.8
2016-08-21T07:53:49.696Z,69.25
2016-08-21T07:55:02.682Z,69.06
2016-08-21T07:56:15.680Z,69.64
2016-08-21T07:57:28.674Z,70.12
2016-08-21T07:58:41.678Z,70.09
2016-08-21T07:59:54.667Z,70.86
2016-08-21T08:01:07.660Z,71.53
2016-08-21T08:02:20.855Z,71.59
2016-08-21T08:03:33.847Z,72.17
2016-08-21T08:04:46.849Z,72.84
2016-08-21T08:05:59.823Z,73.51
2016-08-21T08:07:12.808Z,73.38
2016-08-21T08:08:26.007Z,74.15
2016-08-21T08:09:39.009Z,74.44
2016-08-21T08:10:52.000Z,74.54
2016-08-21T08:12:05.191Z,73.77
2016-08-21T08:13:18.178Z,74.63
2016-08-21T08:14:31.167Z,74.82
2016-08-21T08:15:44.153Z,74.92
2016-08-21T08:16:57.146Z,75.27
2016-08-21T08:18:10.132Z,74.82
2016-08-21T08:19:23.126Z,74.69
2016-08-21T08:20:36.113Z,74.69
2016-08-21T08:21:49.305Z,74.98
2016-08-21T08:23:02.488Z,75.37
2016-08-21T08:24:15.685Z,75.07
2016-08-21T08:25:28.675Z,75.56
2016-08-21T08:26:41.675Z,76.04
2016-08-21T08:27:54.864Z,76.61
2016-08-21T08:29:07.863Z,76.32
2016-08-21T08:30:20.845Z,76.77
2016-08-21T08:31:33.836Z,76.67
2016-08-21T08:32:47.025Z,76.96
2016-08-21T08:34:00.026Z,76.67
2016-08-21T08:35:13.012Z,76.57
2016-08-21T08:36:25.992Z,76.96
2016-08-21T08:37:38.985Z,76.96
2016-08-21T08:38:51.970Z,76.42
2016-08-21T08:40:05.006Z,76.04
2016-08-21T08:41:18.216Z,76.14
2016-08-21T08:42:31.406Z,76.04
2016-08-21T08:43:44.402Z,75.37
2016-08-21T08:44:57.389Z,74.63
2016-08-21T08:46:10.374Z,73.47
2016-08-21T08:47:23.362Z,72.26
2016-08-21T08:48:36.350Z,71.04
2016-08-21T08:49:49.339Z,70.98
2016-08-21T08:51:02.336Z,70.6
2016-08-21T08:52:15.336Z,69.73
2016-08-21T08:53:28.533Z,69.57
2016-08-21T08:54:41.525Z,69.29
2016-08-21T08:55:54.524Z,68.9
2016-08-21T08:57:07.510Z,69.29
2016-08-21T08:58:20.494Z,69.57
2016-08-21T08:59:33.477Z,69.38
2016-08-21T09:00:46.473Z,69.48
2016-08-21T09:01:59.469Z,69.38
2016-08-21T09:03:12.459Z,69.77
2016-08-21T09:04:25.452Z,70.25
2016-08-21T09:05:38.445Z,70.6
2016-08-21T09:06:51.432Z,71.08
2016-08-21T09:08:04.616Z,71.62
2016-08-21T09:09:17.798Z,72.01
2016-08-21T09:10:30.793Z,72.68
2016-08-21T09:11:43.987Z,73.03
2016-08-21T09:12:57.186Z,73.13
2016-08-21T09:14:10.184Z,74.19
2016-08-21T09:15:23.181Z,75.02
2016-08-21T09:16:36.180Z,74.82
2016-08-21T09:17:49.165Z,75.21
2016-08-21T09:19:02.154Z,75.02
2016-08-21T09:20:15.160Z,75.79
2016-08-21T09:21:28.152Z,76.07
2016-08-21T09:22:41.356Z,75.84
2016-08-21T09:23:54.339Z,75.98
2016-08-21T09:25:07.325Z,76.23
2016-08-21T09:26:20.321Z,76.71
2016-08-21T09:27:33.509Z,76.42
2016-08-21T09:28:46.492Z,76.23
2016-08-21T09:29:59.478Z,75.98
2016-08-21T09:31:12.461Z,75.94
2016-08-21T09:32:25.455Z,75.88
2016-08-21T09:33:38.440Z,75.59
2016-08-21T09:34:51.624Z,75.31
2016-08-21T09:36:04.821Z,75.02
2016-08-21T09:37:18.022Z,75.21
2016-08-21T09:38:31.018Z,75.34
2016-08-21T09:39:44.021Z,75.34
2016-08-21T09:40:57.066Z,76.21
2016-08-21T09:42:10.249Z,76.46
2016-08-21T09:43:23.230Z,77.33
2016-08-21T09:44:36.213Z,77.33
2016-08-21T09:45:49.203Z,78.48
2016-08-21T09:47:02.195Z,78.44
2016-08-21T09:48:15.180Z,79.02
2016-08-21T09:49:28.376Z,79.3
2016-08-21T09:50:41.364Z,79.79
2016-08-21T09:51:54.358Z,80.61
2016-08-21T09:53:07.330Z,80.8
2016-08-21T09:54:20.856Z,81.48
2016-08-21T09:55:33.840Z,80.42
2016-08-21T09:56:46.831Z,81.09
2016-08-21T09:57:59.814Z,80.99
2016-08-21T09:59:12.792Z,80.9
2016-08-21T10:00:25.783Z,81.96
2016-08-21T10:01:38.772Z,82.15
2016-08-21T10:02:51.967Z,81.57
2016-08-21T10:04:04.968Z,81.96
2016-08-21T10:05:17.973Z,82.05
2016-08-21T10:06:30.963Z,82.15
2016-08-21T10:07:43.949Z,81.96
2016-08-21T10:08:56.936Z,81.38
2016-08-21T10:10:09.920Z,81.76
2016-08-21T10:11:22.903Z,81.96
2016-08-21T10:12:35.893Z,82.24
2016-08-21T10:13:48.893Z,82.05
2016-08-21T10:15:01.877Z,81.86
2016-08-21T10:16:14.868Z,81.96
2016-08-21T10:17:27.858Z,81.38
2016-08-21T10:18:41.044Z,80.46
2016-08-21T10:19:54.035Z,78.53
2016-08-21T10:21:07.029Z,77.65
2016-08-21T10:22:20.222Z,76.06
2016-08-21T10:23:33.207Z,76.25
2016-08-21T10:24:46.416Z,75.38
2016-08-21T10:25:59.400Z,75.32
2016-08-21T10:27:12.582Z,73.91
2016-08-21T10:28:25.570Z,74.49
2016-08-21T10:29:38.977Z,73.33
2016-08-21T10:30:51.962Z,73.72
2016-08-21T10:32:04.950Z,74.55
2016-08-21T10:33:17.945Z,74.93
2016-08-21T10:34:30.942Z,75.9
2016-08-21T10:35:43.934Z,75.86
2016-08-21T10:36:56.924Z,74.71
2016-08-21T10:38:09.925Z,73.3
2016-08-21T10:39:22.920Z,73.24
2016-08-21T10:40:35.924Z,72.95
2016-08-21T10:41:48.984Z,72.85
2016-08-21T10:43:01.972Z,73.62
2016-08-21T10:44:14.963Z,73.78
2016-08-21T10:45:28.158Z,74.26
2016-08-21T10:46:41.151Z,74.99
2016-08-21T10:47:54.343Z,75.28
2016-08-21T10:49:07.329Z,75.48
2016-08-21T10:50:20.322Z,76.4
2016-08-21T10:51:33.307Z,76.4
2016-08-21T10:52:46.297Z,76.88
2016-08-21T10:53:59.278Z,76.78
2016-08-21T10:55:12.272Z,77.36
2016-08-21T10:56:25.261Z,77.26
2016-08-21T10:57:38.256Z,76.59
2016-08-21T10:58:51.241Z,76.69
2016-08-21T11:00:04.225Z,75.82
2016-08-21T11:01:17.222Z,75.76
2016-08-21T11:02:30.214Z,75.48
2016-08-21T11:03:43.223Z,75.67
2016-08-21T11:04:56.207Z,76.34
2016-08-21T11:06:09.194Z,76.15
2016-08-21T11:07:22.174Z,76.21
2016-08-21T11:08:35.166Z,76.06
2016-08-21T11:09:48.152Z,76.01
2016-08-21T11:11:01.344Z,76.06
2016-08-21T11:12:14.337Z,76.31
2016-08-21T11:13:27.526Z,76.5
2016-08-21T11:14:40.525Z,77.26
2016-08-21T11:15:53.721Z,77.9
2016-08-21T11:17:06.720Z,77.61
2016-08-21T11:18:19.911Z,78
2016-08-21T11:19:32.909Z,77.9
2016-08-21T11:20:45.894Z,78.19
2016-08-21T11:21:58.888Z,78.96
2016-08-21T11:23:12.081Z,78.67
2016-08-21T11:24:25.266Z,78.09
2016-08-21T11:25:38.451Z,78.38
2016-08-21T11:26:51.433Z,78.38
2016-08-21T11:28:04.620Z,78.77
2016-08-21T11:29:17.602Z,79.05
2016-08-21T11:30:30.588Z,78.58
2016-08-21T11:31:43.572Z,78.86
2016-08-21T11:32:56.555Z,78.86
2016-08-21T11:34:09.530Z,79.53
2016-08-21T11:35:22.517Z,79.15
2016-08-21T11:36:35.697Z,79.3
2016-08-21T11:37:48.688Z,79.53
2016-08-21T11:39:01.670Z,79.69
2016-08-21T11:40:14.856Z,79.21
2016-08-21T11:41:27.843Z,79.44
2016-08-21T11:42:40.872Z,80.07
2016-08-21T11:43:53.879Z,80.17
2016-08-21T11:45:06.863Z,79.15
2016-08-21T11:46:19.847Z,79.5
2016-08-21T11:47:32.838Z,79.63
2016-08-21T11:48:45.823Z,79.35
2016-08-21T11:49:59.011Z,79.15
2016-08-21T11:51:12.023Z,78.86
2016-08-21T11:52:25.011Z,78.58
2016-08-21T11:53:38.000Z,78.67
2016-08-21T11:54:50.991Z,78.48
2016-08-21T11:56:03.973Z,78.38
2016-08-21T11:57:16.958Z,78.96
2016-08-21T11:58:29.941Z,78.77
2016-08-21T11:59:43.127Z,78.42
2016-08-21T12:00:56.304Z,78.42
2016-08-21T12:02:09.295Z,77.81
2016-08-21T12:03:22.479Z,78.33
2016-08-21T12:04:35.686Z,77.56
2016-08-21T12:05:48.677Z,77.65
2016-08-21T12:07:01.873Z,78.13
2016-08-21T12:08:15.052Z,78.52
2016-08-21T12:09:28.034Z,78.09
2016-08-21T12:10:41.033Z,78.61
2016-08-21T12:11:54.028Z,78.48
2016-08-21T12:13:07.022Z,78.09
2016-08-21T12:14:20.008Z,78.19
2016-08-21T12:15:33.005Z,77.84
2016-08-21T12:16:45.993Z,77.94
2016-08-21T12:17:58.984Z,76.98
2016-08-21T12:19:12.172Z,77.21
2016-08-21T12:20:25.166Z,76.34
2016-08-21T12:21:38.355Z,76.06
2016-08-21T12:22:51.351Z,76.44
2016-08-21T12:24:04.396Z,76.38
2016-08-21T12:25:17.582Z,75.42
2016-08-21T12:26:30.797Z,75.32
2016-08-21T12:27:43.788Z,74.68
2016-08-21T12:28:56.774Z,73.91
2016-08-21T12:30:10.158Z,73.05
2016-08-21T12:31:23.136Z,72.79
2016-08-21T12:32:36.126Z,72.99
2016-08-21T12:33:49.121Z,72.41
2016-08-21T12:35:02.122Z,71.73
2016-08-21T12:36:15.303Z,72.12
2016-08-21T12:37:28.296Z,72.5
2016-08-21T12:38:41.287Z,72.79
2016-08-21T12:39:54.670Z,72.6
2016-08-21T12:41:07.670Z,72.6
2016-08-21T12:42:20.658Z,72.5
2016-08-21T12:43:33.689Z,72.41
2016-08-21T12:44:46.681Z,71.92
2016-08-21T12:45:59.674Z,72.41
2016-08-21T12:47:12.661Z,72.79
2016-08-21T12:48:25.651Z,72.69
2016-08-21T12:49:38.645Z,73.05
2016-08-21T12:50:51.628Z,73.08
2016-08-21T12:52:04.631Z,72.75
2016-08-21T12:53:17.617Z,73.62
2016-08-21T12:54:30.604Z,73.62
2016-08-21T12:55:43.990Z,73.82
2016-08-21T12:56:56.983Z,73.62
2016-08-21T12:58:09.970Z,73.62
2016-08-21T12:59:23.157Z,73.72
2016-08-21T13:00:36.339Z,73.33
2016-08-21T13:01:49.325Z,74.01
2016-08-21T13:03:02.302Z,73.62
2016-08-21T13:04:15.289Z,73.08
2016-08-21T13:05:28.275Z,72.89
2016-08-21T13:06:41.463Z,72.6
2016-08-21T13:07:54.683Z,72.6
2016-08-21T13:09:07.675Z,72.02
2016-08-21T13:10:20.660Z,71.19
2016-08-21T13:11:33.653Z,71.03
2016-08-21T13:12:46.636Z,70.84
2016-08-21T13:13:59.625Z,70.9
2016-08-21T13:15:12.614Z,71.09
2016-08-21T13:16:25.603Z,71.09
2016-08-21T13:17:38.810Z,72.21
2016-08-21T13:18:52.004Z,72.41
2016-08-21T13:20:05.199Z,72.69
2016-08-21T13:21:18.187Z,73.37
2016-08-21T13:22:31.177Z,73.75
2016-08-21T13:23:44.169Z,74.1
2016-08-21T13:24:57.152Z,74.2
2016-08-21T13:26:10.146Z,74.97
2016-08-21T13:27:23.132Z,75.32
2016-08-21T13:28:36.122Z,75.99
2016-08-21T13:29:49.306Z,76.38
2016-08-21T13:31:02.304Z,77.01
2016-08-21T13:32:15.494Z,77.59
2016-08-21T13:33:28.488Z,78.46
2016-08-21T13:34:41.481Z,78.08
2016-08-21T13:35:54.498Z,78.75
2016-08-21T13:37:07.487Z,79.23
2016-08-21T13:38:20.477Z,79.33
2016-08-21T13:39:33.468Z,78.85
2016-08-21T13:40:46.457Z,78.75
2016-08-21T13:41:59.458Z,78.65
2016-08-21T13:43:12.448Z,79.33
2016-08-21T13:44:25.497Z,78.46
2016-08-21T13:45:38.491Z,79.23
2016-08-21T13:46:51.699Z,79.03
2016-08-21T13:48:04.693Z,79.13
2016-08-21T13:49:17.676Z,79.03
2016-08-21T13:50:30.855Z,78.36
2016-08-21T13:51:43.836Z,78.59
2016-08-21T13:52:57.025Z,78.59
2016-08-21T13:54:10.010Z,77.92
2016-08-21T13:55:23.007Z,77.53
2016-08-21T13:56:36.001Z,78.21
2016-08-21T13:57:48.984Z,77.63
2016-08-21T13:59:01.996Z,78.21
2016-08-21T14:00:15.186Z,78.4
2016-08-21T14:01:28.175Z,78.11
2016-08-21T14:02:41.159Z,78.21
2016-08-21T14:03:54.139Z,78.59
2016-08-21T14:05:07.333Z,78.59
2016-08-21T14:06:20.531Z,78.59
2016-08-21T14:07:33.516Z,80.43
2016-08-21T14:08:46.507Z,79.85
2016-08-21T14:09:59.490Z,80.81
2016-08-21T14:11:12.476Z,80.71
2016-08-21T14:12:25.467Z,80.1
2016-08-21T14:13:38.449Z,81.83
2016-08-21T14:14:51.641Z,81.63
2016-08-21T14:16:04.825Z,81.06
2016-08-21T14:17:17.815Z,81.16
2016-08-21T14:18:30.806Z,80.68
2016-08-21T14:19:43.787Z,81.54
2016-08-21T14:20:56.779Z,83.18
2016-08-21T14:22:09.760Z,81.63
2016-08-21T14:23:22.762Z,82.12
2016-08-21T14:24:35.749Z,80.38
2016-08-21T14:25:48.934Z,81.25
2016-08-21T14:27:01.955Z,80.77
2016-08-21T14:28:15.148Z,80
2016-08-21T14:29:28.134Z,81.93
2016-08-21T14:30:41.125Z,82.12
2016-08-21T14:31:54.333Z,82.79
2016-08-21T14:33:07.320Z,82.21
2016-08-21T14:34:20.307Z,82.12
2016-08-21T14:35:33.494Z,83.81
2016-08-21T14:36:46.498Z,83.72
2016-08-21T14:37:59.486Z,83.04
2016-08-21T14:39:12.469Z,86.6
2016-08-21T14:40:25.459Z,84.29
2016-08-21T14:41:38.445Z,86.12
2016-08-21T14:42:51.624Z,86.74
2016-08-21T14:44:04.815Z,84.72
2016-08-21T14:45:17.852Z,84.81
2016-08-21T14:46:30.844Z,84.05
2016-08-21T14:47:43.833Z,85.68
2016-08-21T14:48:57.027Z,82.12
2016-08-21T14:50:10.019Z,83.37
2016-08-21T14:51:23.013Z,83.37
2016-08-21T14:52:36.013Z,84.91
2016-08-21T14:53:49.000Z,84.91
2016-08-21T14:55:02.005Z,83.28
2016-08-21T14:56:14.992Z,83.56
2016-08-21T14:57:28.380Z,83.75
2016-08-21T14:58:41.366Z,83.47
2016-08-21T14:59:54.365Z,82.5
2016-08-21T15:01:07.354Z,82.5
2016-08-21T15:02:20.342Z,80.87
2016-08-21T15:03:33.321Z,81.16
2016-08-21T15:04:46.309Z,81.54
2016-08-21T15:05:59.290Z,80.68
2016-08-21T15:07:12.276Z,83.28
2016-08-21T15:08:25.263Z,82.12
2016-08-21T15:09:38.446Z,81.35
2016-08-21T15:10:51.441Z,83.37
2016-08-21T15:12:04.430Z,83.75
2016-08-21T15:13:17.410Z,82.79
2016-08-21T15:14:30.607Z,82.21
2016-08-21T15:15:43.993Z,83.56
2016-08-21T15:16:56.981Z,83.47
2016-08-21T15:18:09.978Z,82.56
2016-08-21T15:19:22.966Z,83.42
2016-08-21T15:20:35.949Z,83.37
2016-08-21T15:21:48.955Z,82.08
2016-08-21T15:23:01.945Z,82.21
2016-08-21T15:24:15.147Z,81.54
2016-08-21T15:25:28.142Z,81.16
2016-08-21T15:26:41.132Z,81.63
2016-08-21T15:27:54.127Z,82.12
2016-08-21T15:29:07.115Z,81.54
2016-08-21T15:30:20.102Z,82.31
2016-08-21T15:31:33.090Z,83.18
2016-08-21T15:32:46.127Z,82.27
2016-08-21T15:33:59.115Z,82.17
2016-08-21T15:35:12.102Z,81.7
2016-08-21T15:36:25.091Z,81.6
2016-08-21T15:37:38.083Z,84.48
2016-08-21T15:38:51.065Z,83.42
2016-08-21T15:40:04.258Z,82.46
2016-08-21T15:41:17.251Z,82.75
2016-08-21T15:42:30.234Z,82.56